Kezdőlap
METAR-TAF:

METAR-TAF

Repülőterek :

Malé, Maldív-szigetek

földrajzi szélesség: 04-12N, földrajzi hosszúság: 073-32E, magasság: 2 m

Jelenlegi meteorológiai megfigyelések

A jelentés 2 órával és 21 perccel ezelõtt készült, 11:00 UTC
Kelet-északkeleti szél 17 kt
Hőmérséklet 31°C
Páratartalom 71%
Légköri nyomás 1008 hPa
Látótávolság 10 km, vagy több
Szórványos felhőzet 1800 lábon

METAR: VRMM 251100Z 06017KT 9999 SCT018 31/25 Q1008 NOSIG

Idő: 18:21 (13:21 UTC)

Előrejelzés

A jelentés 2 órával és 21 perccel ezelõtt készült, 11:00 UTC
Az előrejelzés 25-én 12 óra UTC és 26-én 18 óra UTC között érvényes
Kelet-északkeleti szél 17 kt
Látótávolság 10 km, vagy több
Szórványos felhőzet 1800 lábon
25-én 15 óra UTC és 25-én 20 óra UTC között ideiglenes
Látótávolság: 5000 m
Kevés felhő 1700 lábon, Cumulonimbus.
zivatar, enyhe esõ

TAF: VRMM 251100Z 2512/2618 06017KT 9999 SCT018 TEMPO 2515/2520 5000 -TSRA FEW017CB

Meteorológiai megfigyelések és előrejelzések több, mint 4000 repülőtéren (METAR és TAF jelentéseket).

A térképen piros és sárga pontok jelzik az elérhető meteorológiai állomásokat.

Mozgassa az egeret a pont fölött, hogy megjelenjen az állomás neve.

Azután kattintson az időjárási megfigyelések és előrejelzések megtekintéséhez.

A térkép megváltoztatása: kattintson a fekete keresztel jelölt zöld gombra ráközelítéshez, a vonallal jelölt zöld gombra távolításhoz, vagy a zöld nyilakra a szomszédos térképek eléréséhez.


METAR-TAF: